sensor_id;sensor_type;location;lat;lon;timestamp;temperature;humidity
13798;DHT22;6970;51.340;3.240;2023-07-20T00:00:07;18.30;99.90
13798;DHT22;6970;51.340;3.240;2023-07-20T00:02:35;18.30;99.90
13798;DHT22;6970;51.340;3.240;2023-07-20T00:05:03;18.30;99.90
13798;DHT22;6970;51.340;3.240;2023-07-20T00:07:30;18.20;99.90
13798;DHT22;6970;51.340;3.240;2023-07-20T00:09:57;18.20;99.90
13798;DHT22;6970;51.340;3.240;2023-07-20T00:12:24;18.20;99.90
13798;DHT22;6970;51.340;3.240;2023-07-20T00:14:51;18.10;99.90
13798;DHT22;6970;51.340;3.240;2023-07-20T00:17:21;18.10;99.90
13798;DHT22;6970;51.340;3.240;2023-07-20T00:19:51;18.10;99.90
13798;DHT22;6970;51.340;3.240;2023-07-20T00:22:22;18.10;99.90
13798;DHT22;6970;51.340;3.240;2023-07-20T00:24:52;18.00;99.90
13798;DHT22;6970;51.340;3.240;2023-07-20T00:27:19;18.00;99.90
13798;DHT22;6970;51.340;3.240;2023-07-20T00:29:46;18.00;99.90
13798;DHT22;6970;51.340;3.240;2023-07-20T00:32:13;18.00;99.90
13798;DHT22;6970;51.340;3.240;2023-07-20T00:34:42;17.90;99.90
13798;DHT22;6970;51.340;3.240;2023-07-20T00:37:12;18.00;99.90
13798;DHT22;6970;51.340;3.240;2023-07-20T00:39:43;17.90;99.90
13798;DHT22;6970;51.340;3.240;2023-07-20T00:42:09;17.90;99.90
13798;DHT22;6970;51.340;3.240;2023-07-20T00:44:37;17.90;99.90
13798;DHT22;6970;51.340;3.240;2023-07-20T00:47:06;17.90;99.90
13798;DHT22;6970;51.340;3.240;2023-07-20T00:49:35;17.90;99.90
13798;DHT22;6970;51.340;3.240;2023-07-20T00:52:06;17.90;99.90
13798;DHT22;6970;51.340;3.240;2023-07-20T00:54:37;17.90;99.90
13798;DHT22;6970;51.340;3.240;2023-07-20T00:57:07;17.90;99.90
13798;DHT22;6970;51.340;3.240;2023-07-20T00:59:35;17.90;99.90
13798;DHT22;6970;51.340;3.240;2023-07-20T01:02:03;17.80;99.90
13798;DHT22;6970;51.340;3.240;2023-07-20T01:04:34;17.80;99.90
13798;DHT22;6970;51.340;3.240;2023-07-20T01:07:25;17.80;99.90
13798;DHT22;6970;51.340;3.240;2023-07-20T01:10:15;17.70;99.90
13798;DHT22;6970;51.340;3.240;2023-07-20T01:12:49;17.80;99.90
13798;DHT22;6970;51.340;3.240;2023-07-20T01:15:23;17.70;99.90
13798;DHT22;6970;51.340;3.240;2023-07-20T01:17:52;17.70;99.90
13798;DHT22;6970;51.340;3.240;2023-07-20T01:20:22;17.70;99.90
13798;DHT22;6970;51.340;3.240;2023-07-20T01:29:20;17.70;99.90
13798;DHT22;6970;51.340;3.240;2023-07-20T01:31:53;17.70;99.90
13798;DHT22;6970;51.340;3.240;2023-07-20T01:34:24;17.80;99.90
13798;DHT22;6970;51.340;3.240;2023-07-20T01:36:55;17.70;99.90
13798;DHT22;6970;51.340;3.240;2023-07-20T01:39:23;17.70;99.90
13798;DHT22;6970;51.340;3.240;2023-07-20T01:41:54;17.70;99.90
13798;DHT22;6970;51.340;3.240;2023-07-20T01:44:25;17.70;99.90
13798;DHT22;6970;51.340;3.240;2023-07-20T01:46:53;17.70;99.90
13798;DHT22;6970;51.340;3.240;2023-07-20T01:49:21;17.80;99.90
13798;DHT22;6970;51.340;3.240;2023-07-20T01:51:49;17.80;99.90
13798;DHT22;6970;51.340;3.240;2023-07-20T01:54:19;17.80;99.90
13798;DHT22;6970;51.340;3.240;2023-07-20T01:56:50;17.80;99.90
13798;DHT22;6970;51.340;3.240;2023-07-20T01:59:17;17.80;99.90
13798;DHT22;6970;51.340;3.240;2023-07-20T02:01:44;17.80;99.90
13798;DHT22;6970;51.340;3.240;2023-07-20T02:04:13;17.80;99.90
13798;DHT22;6970;51.340;3.240;2023-07-20T02:06:43;17.80;99.90
13798;DHT22;6970;51.340;3.240;2023-07-20T02:09:10;17.80;99.90
13798;DHT22;6970;51.340;3.240;2023-07-20T02:11:40;17.90;99.90
13798;DHT22;6970;51.340;3.240;2023-07-20T02:14:13;17.80;99.90
13798;DHT22;6970;51.340;3.240;2023-07-20T02:16:43;17.80;99.90
13798;DHT22;6970;51.340;3.240;2023-07-20T02:19:15;17.80;99.90
13798;DHT22;6970;51.340;3.240;2023-07-20T02:21:45;17.80;99.90
13798;DHT22;6970;51.340;3.240;2023-07-20T02:24:12;17.80;99.90
13798;DHT22;6970;51.340;3.240;2023-07-20T02:26:42;17.80;99.90
13798;DHT22;6970;51.340;3.240;2023-07-20T02:29:13;17.80;99.90
13798;DHT22;6970;51.340;3.240;2023-07-20T02:31:46;17.80;99.90
13798;DHT22;6970;51.340;3.240;2023-07-20T02:34:13;17.80;99.90
13798;DHT22;6970;51.340;3.240;2023-07-20T02:36:44;17.80;99.90
13798;DHT22;6970;51.340;3.240;2023-07-20T02:39:16;17.80;99.90
13798;DHT22;6970;51.340;3.240;2023-07-20T02:41:45;17.80;99.90
13798;DHT22;6970;51.340;3.240;2023-07-20T02:44:14;17.80;99.90
13798;DHT22;6970;51.340;3.240;2023-07-20T02:46:44;17.80;99.90
13798;DHT22;6970;51.340;3.240;2023-07-20T02:49:13;17.80;99.90
13798;DHT22;6970;51.340;3.240;2023-07-20T02:51:43;17.80;99.90
13798;DHT22;6970;51.340;3.240;2023-07-20T02:54:11;17.80;99.90
13798;DHT22;6970;51.340;3.240;2023-07-20T02:56:39;17.80;99.90
13798;DHT22;6970;51.340;3.240;2023-07-20T02:59:09;17.90;99.90
13798;DHT22;6970;51.340;3.240;2023-07-20T03:01:39;17.90;99.90
13798;DHT22;6970;51.340;3.240;2023-07-20T03:04:12;17.90;99.90
13798;DHT22;6970;51.340;3.240;2023-07-20T03:06:40;17.90;99.90
13798;DHT22;6970;51.340;3.240;2023-07-20T03:09:09;17.90;99.90
13798;DHT22;6970;51.340;3.240;2023-07-20T03:11:37;17.90;99.90
13798;DHT22;6970;51.340;3.240;2023-07-20T03:14:07;17.90;99.90
13798;DHT22;6970;51.340;3.240;2023-07-20T03:16:37;17.90;99.90
13798;DHT22;6970;51.340;3.240;2023-07-20T03:19:06;18.00;99.90
13798;DHT22;6970;51.340;3.240;2023-07-20T03:21:34;18.00;99.90
13798;DHT22;6970;51.340;3.240;2023-07-20T03:24:01;18.00;99.90
13798;DHT22;6970;51.340;3.240;2023-07-20T03:26:28;18.00;99.90
13798;DHT22;6970;51.340;3.240;2023-07-20T03:28:56;18.00;99.90
13798;DHT22;6970;51.340;3.240;2023-07-20T03:31:23;18.00;99.90
13798;DHT22;6970;51.340;3.240;2023-07-20T03:33:53;17.90;99.90
13798;DHT22;6970;51.340;3.240;2023-07-20T03:36:20;17.90;99.90
13798;DHT22;6970;51.340;3.240;2023-07-20T03:38:51;17.90;99.90
13798;DHT22;6970;51.340;3.240;2023-07-20T03:41:19;17.90;99.90
13798;DHT22;6970;51.340;3.240;2023-07-20T03:43:49;17.90;99.90
13798;DHT22;6970;51.340;3.240;2023-07-20T03:46:18;17.90;99.90
13798;DHT22;6970;51.340;3.240;2023-07-20T03:48:47;18.00;99.90
13798;DHT22;6970;51.340;3.240;2023-07-20T03:51:15;18.00;99.90
13798;DHT22;6970;51.340;3.240;2023-07-20T03:53:45;18.00;99.90
13798;DHT22;6970;51.340;3.240;2023-07-20T03:56:13;18.00;99.90
13798;DHT22;6970;51.340;3.240;2023-07-20T03:58:44;18.00;99.90
13798;DHT22;6970;51.340;3.240;2023-07-20T04:01:11;18.00;99.90
13798;DHT22;6970;51.340;3.240;2023-07-20T04:03:39;18.00;99.90
13798;DHT22;6970;51.340;3.240;2023-07-20T04:06:10;18.00;99.90
13798;DHT22;6970;51.340;3.240;2023-07-20T04:08:37;18.00;99.90
13798;DHT22;6970;51.340;3.240;2023-07-20T04:11:06;18.00;99.90
13798;DHT22;6970;51.340;3.240;2023-07-20T04:13:36;18.00;99.90
13798;DHT22;6970;51.340;3.240;2023-07-20T04:16:05;18.00;99.90
13798;DHT22;6970;51.340;3.240;2023-07-20T04:18:33;18.00;99.90
13798;DHT22;6970;51.340;3.240;2023-07-20T04:21:03;18.00;99.90
13798;DHT22;6970;51.340;3.240;2023-07-20T04:23:32;18.00;99.90
13798;DHT22;6970;51.340;3.240;2023-07-20T04:26:06;18.00;99.90
13798;DHT22;6970;51.340;3.240;2023-07-20T04:28:34;18.00;99.90
13798;DHT22;6970;51.340;3.240;2023-07-20T04:31:15;18.00;99.90
13798;DHT22;6970;51.340;3.240;2023-07-20T04:33:42;18.10;99.90
13798;DHT22;6970;51.340;3.240;2023-07-20T04:36:10;18.10;99.90
13798;DHT22;6970;51.340;3.240;2023-07-20T04:38:40;18.10;99.90
13798;DHT22;6970;51.340;3.240;2023-07-20T04:41:10;18.10;99.90
13798;DHT22;6970;51.340;3.240;2023-07-20T04:43:43;18.10;99.90
13798;DHT22;6970;51.340;3.240;2023-07-20T04:46:14;18.10;99.90
13798;DHT22;6970;51.340;3.240;2023-07-20T04:48:42;18.10;99.90
13798;DHT22;6970;51.340;3.240;2023-07-20T04:51:10;18.10;99.90
13798;DHT22;6970;51.340;3.240;2023-07-20T04:53:37;18.10;99.90
13798;DHT22;6970;51.340;3.240;2023-07-20T04:56:04;18.10;99.90
13798;DHT22;6970;51.340;3.240;2023-07-20T04:58:32;18.10;99.90
13798;DHT22;6970;51.340;3.240;2023-07-20T05:01:05;18.10;99.90
13798;DHT22;6970;51.340;3.240;2023-07-20T05:03:32;18.10;99.90
13798;DHT22;6970;51.340;3.240;2023-07-20T05:06:00;18.10;99.90
13798;DHT22;6970;51.340;3.240;2023-07-20T05:08:30;18.10;99.90
13798;DHT22;6970;51.340;3.240;2023-07-20T05:11:00;18.10;99.90
13798;DHT22;6970;51.340;3.240;2023-07-20T05:13:30;18.10;99.90
13798;DHT22;6970;51.340;3.240;2023-07-20T05:16:00;18.10;99.90
13798;DHT22;6970;51.340;3.240;2023-07-20T05:18:30;18.10;99.90
13798;DHT22;6970;51.340;3.240;2023-07-20T05:20:59;18.20;99.90
13798;DHT22;6970;51.340;3.240;2023-07-20T05:23:27;18.20;99.90
13798;DHT22;6970;51.340;3.240;2023-07-20T05:26:01;18.20;99.90
13798;DHT22;6970;51.340;3.240;2023-07-20T05:28:31;18.20;99.90
13798;DHT22;6970;51.340;3.240;2023-07-20T05:31:05;18.30;99.90
13798;DHT22;6970;51.340;3.240;2023-07-20T05:33:34;18.30;99.90
13798;DHT22;6970;51.340;3.240;2023-07-20T05:36:02;18.40;99.90
13798;DHT22;6970;51.340;3.240;2023-07-20T05:38:30;18.50;99.90
13798;DHT22;6970;51.340;3.240;2023-07-20T05:41:00;18.50;99.90
13798;DHT22;6970;51.340;3.240;2023-07-20T05:43:31;18.60;99.90
13798;DHT22;6970;51.340;3.240;2023-07-20T05:46:00;18.70;99.90
13798;DHT22;6970;51.340;3.240;2023-07-20T05:48:30;18.80;99.90
13798;DHT22;6970;51.340;3.240;2023-07-20T05:50:58;18.80;99.90
13798;DHT22;6970;51.340;3.240;2023-07-20T05:53:28;18.90;99.90
13798;DHT22;6970;51.340;3.240;2023-07-20T05:55:57;18.90;99.90
13798;DHT22;6970;51.340;3.240;2023-07-20T05:58:28;18.90;99.90
13798;DHT22;6970;51.340;3.240;2023-07-20T06:00:56;19.00;99.90
13798;DHT22;6970;51.340;3.240;2023-07-20T06:03:26;19.10;99.90
13798;DHT22;6970;51.340;3.240;2023-07-20T06:06:03;19.10;99.90
13798;DHT22;6970;51.340;3.240;2023-07-20T06:08:32;19.20;99.90
13798;DHT22;6970;51.340;3.240;2023-07-20T06:11:00;19.20;99.90
13798;DHT22;6970;51.340;3.240;2023-07-20T06:13:27;19.30;99.90
13798;DHT22;6970;51.340;3.240;2023-07-20T06:15:58;19.30;99.90
13798;DHT22;6970;51.340;3.240;2023-07-20T06:18:28;19.20;99.90
13798;DHT22;6970;51.340;3.240;2023-07-20T06:20:55;19.20;99.90
13798;DHT22;6970;51.340;3.240;2023-07-20T06:23:24;19.30;99.90
13798;DHT22;6970;51.340;3.240;2023-07-20T06:25:55;19.40;99.90
13798;DHT22;6970;51.340;3.240;2023-07-20T06:28:24;19.40;99.90
13798;DHT22;6970;51.340;3.240;2023-07-20T06:30:59;19.50;99.90
13798;DHT22;6970;51.340;3.240;2023-07-20T06:33:28;19.60;99.90
13798;DHT22;6970;51.340;3.240;2023-07-20T06:35:57;19.70;99.90
13798;DHT22;6970;51.340;3.240;2023-07-20T06:38:24;19.80;99.90
13798;DHT22;6970;51.340;3.240;2023-07-20T06:40:56;19.90;99.90
13798;DHT22;6970;51.340;3.240;2023-07-20T06:43:26;19.90;99.90
13798;DHT22;6970;51.340;3.240;2023-07-20T06:45:59;20.00;99.90
13798;DHT22;6970;51.340;3.240;2023-07-20T06:48:27;20.00;99.90
13798;DHT22;6970;51.340;3.240;2023-07-20T06:50:54;20.00;99.90
13798;DHT22;6970;51.340;3.240;2023-07-20T06:53:23;20.00;99.90
13798;DHT22;6970;51.340;3.240;2023-07-20T06:55:50;20.00;99.90
13798;DHT22;6970;51.340;3.240;2023-07-20T06:58:20;20.10;99.90
13798;DHT22;6970;51.340;3.240;2023-07-20T07:00:51;20.10;99.90
13798;DHT22;6970;51.340;3.240;2023-07-20T07:03:19;20.10;99.90
13798;DHT22;6970;51.340;3.240;2023-07-20T07:05:56;20.20;99.90
13798;DHT22;6970;51.340;3.240;2023-07-20T07:08:26;20.40;99.90
13798;DHT22;6970;51.340;3.240;2023-07-20T07:10:54;20.40;99.90
13798;DHT22;6970;51.340;3.240;2023-07-20T07:13:23;20.40;99.90
13798;DHT22;6970;51.340;3.240;2023-07-20T07:15:53;20.40;99.90
13798;DHT22;6970;51.340;3.240;2023-07-20T07:18:21;20.50;99.90
13798;DHT22;6970;51.340;3.240;2023-07-20T07:20:53;20.70;99.90
13798;DHT22;6970;51.340;3.240;2023-07-20T07:23:23;20.90;99.90
13798;DHT22;6970;51.340;3.240;2023-07-20T07:25:50;21.10;99.90
13798;DHT22;6970;51.340;3.240;2023-07-20T07:28:20;21.40;99.90
13798;DHT22;6970;51.340;3.240;2023-07-20T07:30:51;21.60;99.90
13798;DHT22;6970;51.340;3.240;2023-07-20T07:33:21;21.80;99.90
13798;DHT22;6970;51.340;3.240;2023-07-20T07:35:54;21.90;99.90
13798;DHT22;6970;51.340;3.240;2023-07-20T07:38:27;22.10;99.90
13798;DHT22;6970;51.340;3.240;2023-07-20T07:41:16;22.30;99.90
13798;DHT22;6970;51.340;3.240;2023-07-20T07:43:44;22.50;99.90
13798;DHT22;6970;51.340;3.240;2023-07-20T07:46:11;22.60;99.90
13798;DHT22;6970;51.340;3.240;2023-07-20T07:48:38;22.60;99.90
13798;DHT22;6970;51.340;3.240;2023-07-20T07:51:06;22.40;99.90
13798;DHT22;6970;51.340;3.240;2023-07-20T07:53:39;22.30;99.90
13798;DHT22;6970;51.340;3.240;2023-07-20T07:56:09;22.20;99.90
13798;DHT22;6970;51.340;3.240;2023-07-20T07:58:39;22.10;99.90
13798;DHT22;6970;51.340;3.240;2023-07-20T08:01:09;22.00;99.90
13798;DHT22;6970;51.340;3.240;2023-07-20T08:03:40;22.00;99.90
13798;DHT22;6970;51.340;3.240;2023-07-20T08:06:09;22.10;99.90
13798;DHT22;6970;51.340;3.240;2023-07-20T08:08:37;21.90;99.90
13798;DHT22;6970;51.340;3.240;2023-07-20T08:11:05;21.90;99.90
13798;DHT22;6970;51.340;3.240;2023-07-20T08:13:35;21.90;99.90
13798;DHT22;6970;51.340;3.240;2023-07-20T08:16:05;21.90;99.90
13798;DHT22;6970;51.340;3.240;2023-07-20T08:18:38;22.00;99.90
13798;DHT22;6970;51.340;3.240;2023-07-20T08:21:08;22.20;99.90
13798;DHT22;6970;51.340;3.240;2023-07-20T08:23:38;22.20;99.90
13798;DHT22;6970;51.340;3.240;2023-07-20T08:26:05;22.40;99.90
13798;DHT22;6970;51.340;3.240;2023-07-20T08:28:34;22.50;99.90
13798;DHT22;6970;51.340;3.240;2023-07-20T08:31:02;22.50;99.60
13798;DHT22;6970;51.340;3.240;2023-07-20T08:33:33;22.50;99.60
13798;DHT22;6970;51.340;3.240;2023-07-20T08:36:01;22.50;99.60
13798;DHT22;6970;51.340;3.240;2023-07-20T08:38:28;22.60;99.50
13798;DHT22;6970;51.340;3.240;2023-07-20T08:40:57;22.70;99.30
13798;DHT22;6970;51.340;3.240;2023-07-20T08:43:27;22.80;99.10
13798;DHT22;6970;51.340;3.240;2023-07-20T08:45:55;23.00;99.00
13798;DHT22;6970;51.340;3.240;2023-07-20T08:48:27;23.00;98.80
13798;DHT22;6970;51.340;3.240;2023-07-20T08:50:55;23.10;99.00
13798;DHT22;6970;51.340;3.240;2023-07-20T08:53:23;23.20;98.50
13798;DHT22;6970;51.340;3.240;2023-07-20T08:55:52;23.30;98.50
13798;DHT22;6970;51.340;3.240;2023-07-20T08:58:20;23.50;98.50
13798;DHT22;6970;51.340;3.240;2023-07-20T09:00:49;23.70;98.00
13798;DHT22;6970;51.340;3.240;2023-07-20T09:03:18;23.80;97.70
13798;DHT22;6970;51.340;3.240;2023-07-20T09:05:46;24.00;97.70
13798;DHT22;6970;51.340;3.240;2023-07-20T09:08:13;24.10;97.20
13798;DHT22;6970;51.340;3.240;2023-07-20T09:10:42;24.10;97.00
13798;DHT22;6970;51.340;3.240;2023-07-20T09:13:14;24.10;96.70
13798;DHT22;6970;51.340;3.240;2023-07-20T09:15:46;24.00;96.80
13798;DHT22;6970;51.340;3.240;2023-07-20T09:18:24;23.90;96.90
13798;DHT22;6970;51.340;3.240;2023-07-20T09:20:52;23.90;96.90
13798;DHT22;6970;51.340;3.240;2023-07-20T09:23:37;23.80;96.60
13798;DHT22;6970;51.340;3.240;2023-07-20T09:26:14;23.80;96.80
13798;DHT22;6970;51.340;3.240;2023-07-20T09:28:52;23.80;96.80
13798;DHT22;6970;51.340;3.240;2023-07-20T09:31:23;23.80;96.70
13798;DHT22;6970;51.340;3.240;2023-07-20T09:33:52;23.90;96.60
13798;DHT22;6970;51.340;3.240;2023-07-20T09:36:27;23.90;96.40
13798;DHT22;6970;51.340;3.240;2023-07-20T09:38:59;23.90;96.70
13798;DHT22;6970;51.340;3.240;2023-07-20T09:41:45;24.00;96.60
13798;DHT22;6970;51.340;3.240;2023-07-20T09:44:16;24.10;96.50
13798;DHT22;6970;51.340;3.240;2023-07-20T09:46:49;24.30;96.50
13798;DHT22;6970;51.340;3.240;2023-07-20T09:49:22;24.60;96.20
13798;DHT22;6970;51.340;3.240;2023-07-20T09:51:57;25.00;96.00
13798;DHT22;6970;51.340;3.240;2023-07-20T09:54:26;25.50;95.20
13798;DHT22;6970;51.340;3.240;2023-07-20T09:56:57;25.90;94.40
13798;DHT22;6970;51.340;3.240;2023-07-20T09:59:25;26.20;94.30
13798;DHT22;6970;51.340;3.240;2023-07-20T10:02:06;26.60;94.20
13798;DHT22;6970;51.340;3.240;2023-07-20T10:04:37;27.10;93.60
13798;DHT22;6970;51.340;3.240;2023-07-20T10:07:10;27.40;92.60
13798;DHT22;6970;51.340;3.240;2023-07-20T10:09:52;27.60;92.40
13798;DHT22;6970;51.340;3.240;2023-07-20T10:12:22;27.70;92.00
13798;DHT22;6970;51.340;3.240;2023-07-20T10:17:49;27.70;91.60
13798;DHT22;6970;51.340;3.240;2023-07-20T10:20:21;27.80;91.80
13798;DHT22;6970;51.340;3.240;2023-07-20T10:22:54;27.90;91.70
13798;DHT22;6970;51.340;3.240;2023-07-20T10:25:24;28.00;91.70
13798;DHT22;6970;51.340;3.240;2023-07-20T10:27:51;28.20;91.40
13798;DHT22;6970;51.340;3.240;2023-07-20T10:30:21;28.40;91.10
13798;DHT22;6970;51.340;3.240;2023-07-20T10:32:49;28.70;90.90
13798;DHT22;6970;51.340;3.240;2023-07-20T10:35:20;29.00;90.50
13798;DHT22;6970;51.340;3.240;2023-07-20T10:38:13;29.10;90.50
13798;DHT22;6970;51.340;3.240;2023-07-20T10:40:42;29.20;90.00
13798;DHT22;6970;51.340;3.240;2023-07-20T10:43:19;29.30;89.30
13798;DHT22;6970;51.340;3.240;2023-07-20T10:45:52;29.30;88.60
13798;DHT22;6970;51.340;3.240;2023-07-20T10:48:24;29.30;88.70
13798;DHT22;6970;51.340;3.240;2023-07-20T10:51:14;29.40;88.40
13798;DHT22;6970;51.340;3.240;2023-07-20T10:53:49;29.60;88.20
13798;DHT22;6970;51.340;3.240;2023-07-20T10:56:21;29.70;87.80
13798;DHT22;6970;51.340;3.240;2023-07-20T10:58:49;29.80;87.30
13798;DHT22;6970;51.340;3.240;2023-07-20T11:01:17;29.70;86.70
13798;DHT22;6970;51.340;3.240;2023-07-20T11:03:49;29.70;86.80
13798;DHT22;6970;51.340;3.240;2023-07-20T11:11:39;29.60;87.00
13798;DHT22;6970;51.340;3.240;2023-07-20T11:14:21;29.60;87.20
13798;DHT22;6970;51.340;3.240;2023-07-20T11:16:50;29.80;87.30
13798;DHT22;6970;51.340;3.240;2023-07-20T11:19:24;29.80;86.50
13798;DHT22;6970;51.340;3.240;2023-07-20T11:21:55;29.90;86.20
13798;DHT22;6970;51.340;3.240;2023-07-20T11:24:30;29.70;85.90
13798;DHT22;6970;51.340;3.240;2023-07-20T11:27:00;29.60;86.20
13798;DHT22;6970;51.340;3.240;2023-07-20T11:29:30;29.50;86.30
13798;DHT22;6970;51.340;3.240;2023-07-20T11:32:01;29.30;86.80
13798;DHT22;6970;51.340;3.240;2023-07-20T11:34:31;29.20;86.70
13798;DHT22;6970;51.340;3.240;2023-07-20T11:36:59;29.00;86.80
13798;DHT22;6970;51.340;3.240;2023-07-20T11:39:30;28.60;87.40
13798;DHT22;6970;51.340;3.240;2023-07-20T11:42:00;28.10;88.50
13798;DHT22;6970;51.340;3.240;2023-07-20T11:44:28;27.60;89.50
13798;DHT22;6970;51.340;3.240;2023-07-20T11:47:10;27.00;90.20
13798;DHT22;6970;51.340;3.240;2023-07-20T11:49:43;26.50;91.10
13798;DHT22;6970;51.340;3.240;2023-07-20T11:52:16;26.00;91.50
13798;DHT22;6970;51.340;3.240;2023-07-20T11:54:47;25.60;92.00
13798;DHT22;6970;51.340;3.240;2023-07-20T11:57:19;25.10;92.50
13798;DHT22;6970;51.340;3.240;2023-07-20T11:59:56;24.60;93.20
13798;DHT22;6970;51.340;3.240;2023-07-20T12:02:29;24.20;93.70
13798;DHT22;6970;51.340;3.240;2023-07-20T12:04:58;23.80;94.20
13798;DHT22;6970;51.340;3.240;2023-07-20T12:07:35;23.50;94.60
13798;DHT22;6970;51.340;3.240;2023-07-20T12:10:07;23.30;95.00
13798;DHT22;6970;51.340;3.240;2023-07-20T12:12:41;23.10;95.40
13798;DHT22;6970;51.340;3.240;2023-07-20T12:15:26;23.00;95.60
13798;DHT22;6970;51.340;3.240;2023-07-20T12:18:01;22.80;96.10
13798;DHT22;6970;51.340;3.240;2023-07-20T12:20:37;22.60;96.30
13798;DHT22;6970;51.340;3.240;2023-07-20T12:23:11;22.50;96.40
13798;DHT22;6970;51.340;3.240;2023-07-20T12:25:46;22.40;96.60
13798;DHT22;6970;51.340;3.240;2023-07-20T12:28:18;22.30;96.80
13798;DHT22;6970;51.340;3.240;2023-07-20T12:30:49;22.30;96.80
13798;DHT22;6970;51.340;3.240;2023-07-20T12:33:28;22.40;96.90
13798;DHT22;6970;51.340;3.240;2023-07-20T12:35:57;22.50;96.90
13798;DHT22;6970;51.340;3.240;2023-07-20T12:38:25;22.60;96.90
13798;DHT22;6970;51.340;3.240;2023-07-20T12:40:57;22.60;96.80
13798;DHT22;6970;51.340;3.240;2023-07-20T12:43:25;22.70;96.70
13798;DHT22;6970;51.340;3.240;2023-07-20T12:45:52;22.70;96.60
13798;DHT22;6970;51.340;3.240;2023-07-20T12:48:20;22.80;96.60
13798;DHT22;6970;51.340;3.240;2023-07-20T12:50:50;22.90;96.60
13798;DHT22;6970;51.340;3.240;2023-07-20T12:53:17;23.00;96.50
13798;DHT22;6970;51.340;3.240;2023-07-20T12:55:45;23.10;96.40
13798;DHT22;6970;51.340;3.240;2023-07-20T12:58:14;23.20;96.30
13798;DHT22;6970;51.340;3.240;2023-07-20T13:00:44;23.40;96.20
13798;DHT22;6970;51.340;3.240;2023-07-20T13:03:11;23.60;95.90
13798;DHT22;6970;51.340;3.240;2023-07-20T13:05:56;23.70;95.70
13798;DHT22;6970;51.340;3.240;2023-07-20T13:08:26;23.80;95.50
13798;DHT22;6970;51.340;3.240;2023-07-20T13:10:54;23.90;95.30
13798;DHT22;6970;51.340;3.240;2023-07-20T13:13:22;24.00;95.20
13798;DHT22;6970;51.340;3.240;2023-07-20T13:15:52;24.10;95.00
13798;DHT22;6970;51.340;3.240;2023-07-20T13:18:23;24.20;94.90
13798;DHT22;6970;51.340;3.240;2023-07-20T13:20:52;24.30;94.70
13798;DHT22;6970;51.340;3.240;2023-07-20T13:23:20;24.10;94.60
13798;DHT22;6970;51.340;3.240;2023-07-20T13:25:50;24.00;94.80
13798;DHT22;6970;51.340;3.240;2023-07-20T13:28:20;23.90;94.70
13798;DHT22;6970;51.340;3.240;2023-07-20T13:30:50;23.80;94.80
13798;DHT22;6970;51.340;3.240;2023-07-20T13:33:18;23.70;94.90
13798;DHT22;6970;51.340;3.240;2023-07-20T13:35:46;23.70;94.80
13798;DHT22;6970;51.340;3.240;2023-07-20T13:38:20;23.60;94.80
13798;DHT22;6970;51.340;3.240;2023-07-20T13:40:51;23.60;94.80
13798;DHT22;6970;51.340;3.240;2023-07-20T13:43:19;23.50;94.80
13798;DHT22;6970;51.340;3.240;2023-07-20T13:45:48;23.40;94.90
13798;DHT22;6970;51.340;3.240;2023-07-20T13:48:18;23.40;95.10
13798;DHT22;6970;51.340;3.240;2023-07-20T13:50:54;23.30;95.10
13798;DHT22;6970;51.340;3.240;2023-07-20T13:53:25;23.30;95.20
13798;DHT22;6970;51.340;3.240;2023-07-20T13:55:58;23.30;95.30
13798;DHT22;6970;51.340;3.240;2023-07-20T13:58:32;23.20;95.40
13798;DHT22;6970;51.340;3.240;2023-07-20T14:01:02;23.30;95.50
13798;DHT22;6970;51.340;3.240;2023-07-20T14:03:32;23.30;95.40
13798;DHT22;6970;51.340;3.240;2023-07-20T14:05:59;23.30;95.30
13798;DHT22;6970;51.340;3.240;2023-07-20T14:08:29;23.30;95.50
13798;DHT22;6970;51.340;3.240;2023-07-20T14:10:58;23.30;95.60
13798;DHT22;6970;51.340;3.240;2023-07-20T14:13:31;23.30;95.50
13798;DHT22;6970;51.340;3.240;2023-07-20T14:16:15;23.30;95.60
13798;DHT22;6970;51.340;3.240;2023-07-20T14:18:42;23.20;95.60
13798;DHT22;6970;51.340;3.240;2023-07-20T14:21:13;23.10;95.70
13798;DHT22;6970;51.340;3.240;2023-07-20T14:23:44;23.00;95.80
13798;DHT22;6970;51.340;3.240;2023-07-20T14:26:14;23.00;95.80
13798;DHT22;6970;51.340;3.240;2023-07-20T14:28:47;22.90;95.80
13798;DHT22;6970;51.340;3.240;2023-07-20T14:31:17;22.80;96.20
13798;DHT22;6970;51.340;3.240;2023-07-20T14:33:49;22.80;96.00
13798;DHT22;6970;51.340;3.240;2023-07-20T14:36:24;22.80;96.10
13798;DHT22;6970;51.340;3.240;2023-07-20T14:38:52;22.80;96.20
13798;DHT22;6970;51.340;3.240;2023-07-20T14:41:21;22.90;96.20
13798;DHT22;6970;51.340;3.240;2023-07-20T14:43:53;22.80;96.20
13798;DHT22;6970;51.340;3.240;2023-07-20T14:46:22;22.80;96.20
13798;DHT22;6970;51.340;3.240;2023-07-20T14:48:52;22.80;96.10
13798;DHT22;6970;51.340;3.240;2023-07-20T14:51:20;22.80;96.20
13798;DHT22;6970;51.340;3.240;2023-07-20T14:53:50;22.80;96.20
13798;DHT22;6970;51.340;3.240;2023-07-20T14:56:17;22.80;96.20
13798;DHT22;6970;51.340;3.240;2023-07-20T14:58:44;22.90;96.20
13798;DHT22;6970;51.340;3.240;2023-07-20T15:01:11;23.10;96.00
13798;DHT22;6970;51.340;3.240;2023-07-20T15:03:38;23.30;95.90
13798;DHT22;6970;51.340;3.240;2023-07-20T15:06:11;23.60;95.50
13798;DHT22;6970;51.340;3.240;2023-07-20T15:08:41;23.90;95.30
13798;DHT22;6970;51.340;3.240;2023-07-20T15:11:08;24.30;94.90
13798;DHT22;6970;51.340;3.240;2023-07-20T15:13:36;24.60;94.50
13798;DHT22;6970;51.340;3.240;2023-07-20T15:16:04;24.80;94.10
13798;DHT22;6970;51.340;3.240;2023-07-20T15:18:33;24.90;93.50
13798;DHT22;6970;51.340;3.240;2023-07-20T15:21:14;24.90;93.00
13798;DHT22;6970;51.340;3.240;2023-07-20T15:23:43;24.90;93.20
13798;DHT22;6970;51.340;3.240;2023-07-20T15:26:12;24.90;93.30
13798;DHT22;6970;51.340;3.240;2023-07-20T15:28:40;24.90;93.30
13798;DHT22;6970;51.340;3.240;2023-07-20T15:31:08;25.00;93.30
13798;DHT22;6970;51.340;3.240;2023-07-20T15:33:36;25.00;93.20
13798;DHT22;6970;51.340;3.240;2023-07-20T15:36:09;25.00;93.20
13798;DHT22;6970;51.340;3.240;2023-07-20T15:38:39;25.00;93.20
13798;DHT22;6970;51.340;3.240;2023-07-20T15:41:11;25.00;93.30
13798;DHT22;6970;51.340;3.240;2023-07-20T15:43:39;25.00;93.30
13798;DHT22;6970;51.340;3.240;2023-07-20T15:48:48;25.00;93.40
13798;DHT22;6970;51.340;3.240;2023-07-20T15:51:19;25.00;93.80
13798;DHT22;6970;51.340;3.240;2023-07-20T15:53:47;24.90;93.40
13798;DHT22;6970;51.340;3.240;2023-07-20T15:56:14;24.90;93.50
13798;DHT22;6970;51.340;3.240;2023-07-20T15:58:44;24.90;93.30
13798;DHT22;6970;51.340;3.240;2023-07-20T16:01:15;24.90;93.30
13798;DHT22;6970;51.340;3.240;2023-07-20T16:03:43;25.00;93.20
13798;DHT22;6970;51.340;3.240;2023-07-20T16:06:11;25.00;93.10
13798;DHT22;6970;51.340;3.240;2023-07-20T16:08:41;24.90;93.10
13798;DHT22;6970;51.340;3.240;2023-07-20T16:11:09;24.80;93.10
13798;DHT22;6970;51.340;3.240;2023-07-20T16:13:40;24.60;93.20
13798;DHT22;6970;51.340;3.240;2023-07-20T16:16:09;24.60;93.30
13798;DHT22;6970;51.340;3.240;2023-07-20T16:18:37;24.60;93.30
13798;DHT22;6970;51.340;3.240;2023-07-20T16:21:07;24.50;93.40